Time;durP1;ratioP1;P1;durP2;ratioP2;P2;SDS_P1;SDS_P2;PMS_P1;PMS_P2;Temp;Humidity;BMP_temperature;BMP_pressure;BME280_temperature;BME280_humidity;BME280_pressure;Samples;Min_cycle;Max_cycle;Signal;HPM_P1;HPM_P2
2024/03/23 00:00:34;;;;;;;35.38;17.25;;;;;;;6.05;100.00;97745.59;6110089;19;20007;-71
2024/03/23 00:02:36;;;;;;;30.70;16.92;;;;;;;6.02;100.00;97751.78;6108828;19;20023;-72
2024/03/23 00:04:37;;;;;;;35.50;17.70;;;;;;;5.94;100.00;97750.06;6109292;19;20011;-71
2024/03/23 00:06:39;;;;;;;34.83;17.98;;;;;;;5.91;100.00;97746.91;6107677;19;20010;-71
2024/03/23 00:08:40;;;;;;;37.13;16.95;;;;;;;5.89;100.00;97735.47;6109057;19;20017;-71
2024/03/23 00:10:41;;;;;;;30.38;16.05;;;;;;;5.96;100.00;97723.84;6108182;19;20006;-71
2024/03/23 00:12:43;;;;;;;31.20;16.25;;;;;;;6.01;100.00;97718.03;6108980;19;20010;-71
2024/03/23 00:14:44;;;;;;;30.67;16.25;;;;;;;6.00;100.00;97713.72;6109490;19;20475;-71
2024/03/23 00:16:45;;;;;;;32.13;17.10;;;;;;;5.96;100.00;97718.38;6104694;19;20051;-71
2024/03/23 00:18:47;;;;;;;28.45;16.23;;;;;;;5.88;100.00;97706.44;6108340;19;20010;-70
2024/03/23 00:20:48;;;;;;;31.15;16.35;;;;;;;5.83;100.00;97703.97;6107744;19;20082;-71
2024/03/23 00:22:50;;;;;;;29.98;16.52;;;;;;;5.79;100.00;97696.81;6107670;19;20407;-71
2024/03/23 00:24:51;;;;;;;32.03;16.67;;;;;;;5.79;100.00;97696.81;6108509;19;20010;-71
2024/03/23 00:26:53;;;;;;;35.00;18.02;;;;;;;5.76;100.00;97692.88;6105968;19;20413;-71
2024/03/23 00:28:54;;;;;;;31.27;16.30;;;;;;;5.81;100.00;97689.03;6108316;19;20017;-71
2024/03/23 00:30:55;;;;;;;31.48;17.27;;;;;;;5.81;100.00;97689.84;6108965;19;20007;-71
2024/03/23 00:32:57;;;;;;;31.08;16.45;;;;;;;5.81;100.00;97681.59;6108132;19;20348;-71
2024/03/23 00:34:59;;;;;;;31.20;16.77;;;;;;;5.84;100.00;97683.59;6108063;19;20405;-71
2024/03/23 00:37:00;;;;;;;27.70;15.38;;;;;;;5.89;100.00;97668.78;6106154;19;20006;-71
2024/03/23 00:39:01;;;;;;;27.13;15.65;;;;;;;5.93;100.00;97672.41;6107801;19;20404;-71
2024/03/23 00:41:03;;;;;;;30.98;16.10;;;;;;;5.95;100.00;97666.53;6108051;19;20011;-71
2024/03/23 00:43:04;;;;;;;29.85;17.25;;;;;;;5.95;100.00;97672.03;6109270;19;20417;-71
2024/03/23 00:45:07;;;;;;;29.55;16.75;;;;;;;5.96;100.00;97676.34;6108249;19;20007;-71
2024/03/23 00:47:08;;;;;;;25.63;15.13;;;;;;;6.01;100.00;97665.88;6107451;19;20007;-71
2024/03/23 00:49:10;;;;;;;31.73;16.73;;;;;;;6.05;100.00;97669.47;6109461;19;20014;-71
2024/03/23 00:51:11;;;;;;;28.80;15.88;;;;;;;6.08;100.00;97656.97;6109001;19;20002;-71
2024/03/23 00:53:12;;;;;;;28.83;16.75;;;;;;;6.12;100.00;97649.56;6105950;19;20397;-71
2024/03/23 00:55:12;;;;;;;28.52;15.52;;;;;;;6.16;100.00;97645.72;6108300;19;20006;-71
2024/03/23 00:57:13;;;;;;;28.98;16.33;;;;;;;6.16;100.00;97639.44;6106533;19;20010;-71
2024/03/23 00:59:13;;;;;;;31.80;17.58;;;;;;;6.15;100.00;97640.59;6108133;19;20045;-71
2024/03/23 01:01:14;;;;;;;30.13;16.23;;;;;;;6.14;100.00;97637.06;6109182;19;20396;-71
2024/03/23 01:03:14;;;;;;;28.30;16.13;;;;;;;6.08;100.00;97641.28;6109079;19;20086;-71
2024/03/23 01:05:14;;;;;;;28.83;16.83;;;;;;;6.01;100.00;97635.66;6107693;19;20023;-71
2024/03/23 01:07:15;;;;;;;28.17;15.23;;;;;;;5.99;100.00;97637.22;6106244;19;20006;-71
2024/03/23 01:09:15;;;;;;;27.02;15.07;;;;;;;5.95;100.00;97628.91;6097705;19;20586;-71
2024/03/23 01:11:15;;;;;;;29.17;16.33;;;;;;;6.02;100.00;97618.03;6107654;19;20049;-71
2024/03/23 01:13:20;;;;;;;31.75;16.08;;;;;;;6.08;100.00;97608.31;6107294;19;20006;-71
2024/03/23 01:15:20;;;;;;;31.13;17.02;;;;;;;6.11;100.00;97621.31;6107545;19;20014;-71
2024/03/23 01:17:21;;;;;;;31.30;16.33;;;;;;;6.14;100.00;97598.59;6106014;19;20336;-71
2024/03/23 01:19:21;;;;;;;30.90;17.00;;;;;;;6.15;100.00;97596.66;6106115;19;20007;-70
2024/03/23 01:21:21;;;;;;;30.27;16.42;;;;;;;6.12;100.00;97598.19;6107594;19;20031;-71
2024/03/23 01:23:22;;;;;;;32.38;16.73;;;;;;;6.10;100.00;97586.75;6107111;19;20076;-71
2024/03/23 01:25:22;;;;;;;32.47;17.08;;;;;;;6.03;100.00;97572.94;6106904;19;20034;-71
2024/03/23 01:27:23;;;;;;;32.03;17.27;;;;;;;5.99;100.00;97577.59;6104331;19;20034;-71
2024/03/23 01:29:23;;;;;;;30.77;15.85;;;;;;;5.95;100.00;97557.50;6107872;19;20032;-71
2024/03/23 01:31:23;;;;;;;29.40;15.50;;;;;;;5.91;100.00;97562.16;6107808;19;20345;-71
2024/03/23 01:33:24;;;;;;;32.58;16.63;;;;;;;5.86;100.00;97560.50;6107187;19;20007;-71
2024/03/23 01:35:24;;;;;;;32.10;16.77;;;;;;;5.83;100.00;97563.19;6105916;19;20019;-71
2024/03/23 01:37:24;;;;;;;29.23;16.05;;;;;;;5.80;100.00;97558.44;6105046;19;20463;-71
2024/03/23 01:39:25;;;;;;;30.50;17.20;;;;;;;5.81;100.00;97557.28;6107407;19;20026;-71
2024/03/23 01:41:25;;;;;;;31.30;16.30;;;;;;;5.81;100.00;97551.78;6106441;19;20003;-71
2024/03/23 01:43:25;;;;;;;29.85;15.93;;;;;;;5.83;100.00;97538.50;6107055;19;20095;-71
2024/03/23 01:45:26;;;;;;;32.83;17.90;;;;;;;5.90;100.00;97538.59;6106768;19;20034;-71
2024/03/23 01:47:26;;;;;;;29.98;15.70;;;;;;;5.95;100.00;97543.00;6105355;19;20062;-71
2024/03/23 01:49:27;;;;;;;28.77;15.75;;;;;;;5.96;100.00;97534.41;6107020;19;20104;-71
2024/03/23 01:51:28;;;;;;;29.15;15.60;;;;;;;6.00;100.00;97545.44;6106852;19;20006;-71
2024/03/23 01:53:29;;;;;;;32.70;18.27;;;;;;;5.97;100.00;97541.47;6104708;19;20029;-70
2024/03/23 01:55:30;;;;;;;32.53;17.20;;;;;;;5.96;100.00;97545.38;6105988;19;20323;-71
2024/03/23 01:57:30;;;;;;;30.50;16.83;;;;;;;5.99;100.00;97544.63;6104918;19;20002;-71
2024/03/23 01:59:30;;;;;;;30.10;15.65;;;;;;;6.00;100.00;97542.69;6107252;19;20038;-71
2024/03/23 02:01:36;;;;;;;30.58;16.70;;;;;;;6.00;100.00;97527.00;6105437;19;20351;-70
2024/03/23 02:03:36;;;;;;;28.92;16.13;;;;;;;6.02;100.00;97535.66;6107090;19;20454;-70
2024/03/23 02:05:37;;;;;;;32.15;17.30;;;;;;;6.04;100.00;97530.59;6106515;19;20002;-71
2024/03/23 02:07:39;;;;;;;65.97;30.88;;;;;;;6.08;100.00;97527.88;6104635;19;20033;-71
2024/03/23 02:09:40;;;;;;;43.88;22.90;;;;;;;6.05;100.00;97523.94;6100560;19;20007;-71
2024/03/23 02:11:40;;;;;;;38.63;18.90;;;;;;;6.03;100.00;97519.97;6099517;19;20023;-70
2024/03/23 02:13:41;;;;;;;38.67;18.42;;;;;;;6.04;100.00;97516.06;6096993;19;20007;-71
2024/03/23 02:15:41;;;;;;;33.83;17.42;;;;;;;6.01;100.00;97509.34;6099258;19;20071;-71
2024/03/23 02:17:42;;;;;;;31.73;17.45;;;;;;;5.98;100.00;97523.06;6096636;19;20015;-71
2024/03/23 02:19:42;;;;;;;32.38;16.38;;;;;;;5.98;100.00;97506.56;6099917;19;20415;-71
2024/03/23 02:21:46;;;;;;;33.28;16.63;;;;;;;6.00;100.00;97505.03;6098011;19;20011;-71
2024/03/23 02:23:47;;;;;;;31.77;16.70;;;;;;;6.05;100.00;97501.19;6099300;19;20006;-71
2024/03/23 02:25:47;;;;;;;29.08;16.70;;;;;;;6.10;100.00;97512.63;6098181;19;20511;-71
2024/03/23 02:27:47;;;;;;;33.20;16.13;;;;;;;6.16;100.00;97508.38;6098403;19;20090;-71
2024/03/23 02:29:48;;;;;;;30.73;16.75;;;;;;;6.18;100.00;97499.78;6098118;19;20007;-71
2024/03/23 02:31:48;;;;;;;29.83;15.73;;;;;;;6.23;100.00;97476.69;6098710;19;20002;-71
2024/03/23 02:33:48;;;;;;;31.45;17.13;;;;;;;6.20;100.00;97473.50;6098690;19;20007;-71
2024/03/23 02:35:49;;;;;;;32.83;16.88;;;;;;;6.22;100.00;97478.66;6096471;19;20018;-71
2024/03/23 02:37:49;;;;;;;32.45;16.25;;;;;;;6.22;100.00;97486.09;6095498;19;20014;-71
2024/03/23 02:39:50;;;;;;;33.30;16.67;;;;;;;6.19;100.00;97485.66;6102231;19;19998;-71
2024/03/23 02:41:50;;;;;;;33.65;16.60;;;;;;;6.17;100.00;97482.50;6103931;19;20010;-71
2024/03/23 02:43:50;;;;;;;33.67;17.52;;;;;;;6.18;100.00;97475.06;6104094;19;20010;-71
2024/03/23 02:45:51;;;;;;;32.25;16.15;;;;;;;6.17;100.00;97493.50;6102853;19;20307;-71
2024/03/23 02:47:52;;;;;;;28.75;16.80;;;;;;;6.17;100.00;97479.75;6103088;19;20003;-71
2024/03/23 02:49:52;;;;;;;30.95;17.65;;;;;;;6.19;100.00;97465.66;6103085;19;20018;-71
2024/03/23 02:51:52;;;;;;;34.90;18.88;;;;;;;6.15;100.00;97462.88;6101414;19;20056;-71
2024/03/23 02:53:52;;;;;;;35.65;18.42;;;;;;;6.10;100.00;97465.16;6101778;19;20007;-71
2024/03/23 02:55:53;;;;;;;36.40;18.40;;;;;;;6.04;100.00;97456.47;6103148;19;20007;-70
2024/03/23 02:57:53;;;;;;;33.40;17.45;;;;;;;6.04;100.00;97442.72;6102050;19;20443;-71
2024/03/23 02:59:54;;;;;;;34.65;17.83;;;;;;;6.06;100.00;97423.13;6103722;19;20020;-71
2024/03/23 03:01:54;;;;;;;35.83;19.05;;;;;;;6.05;100.00;97414.09;6103675;19;20018;-70
2024/03/23 03:03:54;;;;;;;37.15;18.98;;;;;;;6.02;100.00;97403.84;6103203;19;20471;-71
2024/03/23 03:05:56;;;;;;;33.67;18.48;;;;;;;5.98;100.00;97408.53;6103071;19;20014;-71
2024/03/23 03:07:56;;;;;;;34.45;20.35;;;;;;;5.93;100.00;97394.31;6102744;19;20018;-71
2024/03/23 03:09:57;;;;;;;33.45;17.98;;;;;;;5.87;100.00;97386.38;6106255;19;20395;-71
2024/03/23 03:11:57;;;;;;;33.17;17.98;;;;;;;5.84;100.00;97389.09;6110303;19;20058;-71
2024/03/23 03:14:00;;;;;;;33.20;19.38;;;;;;;5.80;100.00;97402.78;6111050;19;20069;-71
2024/03/23 03:16:00;;;;;;;34.78;17.48;;;;;;;5.72;100.00;97389.34;6108992;19;20333;-71
2024/03/23 03:18:00;;;;;;;33.75;18.58;;;;;;;5.71;100.00;97406.94;6110133;19;20033;-71
2024/03/23 03:20:01;;;;;;;35.35;19.38;;;;;;;5.68;100.00;97400.25;6109624;19;20007;-71
2024/03/23 03:22:01;;;;;;;33.80;18.30;;;;;;;5.66;100.00;97397.09;6109253;19;20018;-71
2024/03/23 03:24:01;;;;;;;33.50;17.80;;;;;;;5.66;100.00;97388.06;6110451;19;20396;-71
2024/03/23 03:26:02;;;;;;;34.63;18.15;;;;;;;5.71;100.00;97383.06;6109022;19;20006;-71
2024/03/23 03:28:03;;;;;;;36.40;18.50;;;;;;;5.72;100.00;97381.09;6109050;19;20025;-71
2024/03/23 03:30:05;;;;;;;33.10;17.60;;;;;;;5.69;100.00;97374.38;6109196;19;20002;-71
2024/03/23 03:32:06;;;;;;;35.15;18.05;;;;;;;5.71;100.00;97376.75;6109380;19;20487;-71
2024/03/23 03:34:06;;;;;;;36.85;17.88;;;;;;;5.72;100.00;97375.63;6109731;19;20003;-71
2024/03/23 03:36:07;;;;;;;37.75;18.05;;;;;;;5.74;100.00;97373.28;6109347;19;20490;-71
2024/03/23 03:38:07;;;;;;;36.90;18.63;;;;;;;5.73;100.00;97375.25;6108153;19;20017;-71
2024/03/23 03:40:08;;;;;;;37.28;18.95;;;;;;;5.74;100.00;97379.56;6108775;19;20019;-71
2024/03/23 03:42:09;;;;;;;33.22;17.50;;;;;;;5.78;100.00;97374.09;6110952;19;20403;-71
2024/03/23 03:44:09;;;;;;;32.15;18.05;;;;;;;5.83;100.00;97371.03;6109722;19;20019;-71
2024/03/23 03:46:10;;;;;;;32.55;18.02;;;;;;;5.86;100.00;97379.31;6108317;19;20010;-71
2024/03/23 03:48:11;;;;;;;36.85;19.80;;;;;;;5.88;100.00;97379.75;6108678;19;20006;-71
2024/03/23 03:50:11;;;;;;;32.45;16.95;;;;;;;5.88;100.00;97357.78;6108109;19;20528;-71
2024/03/23 03:52:11;;;;;;;33.58;17.67;;;;;;;5.94;100.00;97362.94;6108162;19;20022;-71
2024/03/23 03:54:11;;;;;;;28.65;16.40;;;;;;;5.93;100.00;97353.13;6106924;19;20011;-71
2024/03/23 03:56:12;;;;;;;31.52;16.83;;;;;;;5.96;100.00;97355.94;6108673;19;20011;-70
2024/03/23 03:58:12;;;;;;;37.88;18.75;;;;;;;5.96;100.00;97355.94;6108457;19;20017;-70
2024/03/23 04:00:13;;;;;;;35.92;18.58;;;;;;;5.94;100.00;97344.53;6107683;19;20002;-71
2024/03/23 04:02:13;;;;;;;35.58;19.05;;;;;;;5.96;100.00;97344.97;6109164;19;20014;-71
2024/03/23 04:04:16;;;;;;;34.45;18.67;;;;;;;5.98;100.00;97315.16;6108837;19;20011;-71
2024/03/23 04:06:19;;;;;;;33.90;17.65;;;;;;;6.02;100.00;97306.97;6108501;19;20361;-71
2024/03/23 04:08:20;;;;;;;36.88;18.67;;;;;;;6.04;100.00;97304.63;6109505;19;20030;-71
2024/03/23 04:10:20;;;;;;;37.80;20.00;;;;;;;5.99;100.00;97316.75;6110388;19;20011;-71
2024/03/23 04:12:21;;;;;;;37.45;18.60;;;;;;;5.95;100.00;97296.69;6109277;19;20043;-71
2024/03/23 04:14:21;;;;;;;31.25;17.58;;;;;;;5.99;100.00;97302.22;6110316;19;20020;-71
2024/03/23 04:16:29;;;;;;;27.92;17.17;;;;;;;6.00;100.00;97328.50;6108290;19;20011;-71
2024/03/23 04:18:29;;;;;;;32.17;17.88;;;;;;;6.03;100.00;97314.03;6110401;19;20082;-71
2024/03/23 04:20:29;;;;;;;33.70;17.77;;;;;;;6.05;100.00;97308.97;6108370;19;20333;-71
2024/03/23 04:22:30;;;;;;;32.25;17.58;;;;;;;6.06;100.00;97300.34;6109959;19;20014;-71
2024/03/23 04:24:30;;;;;;;39.92;19.65;;;;;;;6.05;100.00;97298.78;6109793;19;20467;-71
2024/03/23 04:26:39;;;;;;;33.78;18.10;;;;;;;6.02;100.00;97295.97;6107748;19;20006;-71
2024/03/23 04:28:40;;;;;;;30.73;17.05;;;;;;;5.98;100.00;97270.47;6110391;19;20010;-71
2024/03/23 04:30:40;;;;;;;38.63;19.33;;;;;;;5.95;100.00;97274.72;6108760;19;20002;-71
2024/03/23 04:32:41;;;;;;;37.50;19.65;;;;;;;5.90;100.00;97275.88;6108809;19;20346;-71
2024/03/23 04:34:43;;;;;;;41.40;21.15;;;;;;;5.85;100.00;97275.38;6109437;19;20006;-71
2024/03/23 04:36:43;;;;;;;41.42;18.33;;;;;;;5.83;100.00;97262.03;6107620;19;20002;-71
2024/03/23 04:38:46;;;;;;;34.53;18.65;;;;;;;5.83;100.00;97237.31;6109419;19;20458;-71
2024/03/23 04:40:59;;;;;;;35.88;18.92;;;;;;;5.83;100.00;97244.78;6108323;19;20003;-71
2024/03/23 04:43:01;;;;;;;36.13;19.55;;;;;;;5.81;100.00;97252.59;6108281;19;20006;-71
2024/03/23 04:45:01;;;;;;;38.00;21.10;;;;;;;5.79;100.00;97238.44;6108196;19;20009;-71
2024/03/23 04:47:01;;;;;;;39.17;19.45;;;;;;;5.79;100.00;97225.53;6107315;19;20602;-71
2024/03/23 04:49:04;;;;;;;39.92;20.67;;;;;;;5.79;100.00;97220.06;6108921;19;20542;-71
2024/03/23 04:51:04;;;;;;;42.03;21.08;;;;;;;5.80;100.00;97218.88;6108033;19;20007;-71
2024/03/23 04:53:04;;;;;;;36.25;20.02;;;;;;;5.79;100.00;97206.31;6106384;19;20032;-71
2024/03/23 04:55:05;;;;;;;41.42;21.65;;;;;;;5.85;100.00;97199.31;6108208;19;20103;-71
2024/03/23 04:57:06;;;;;;;41.17;21.73;;;;;;;5.82;100.00;97196.53;6107098;19;20353;-71
2024/03/23 04:59:06;;;;;;;38.63;20.52;;;;;;;5.78;100.00;97201.19;6108058;19;20006;-71
2024/03/23 05:01:06;;;;;;;47.63;22.48;;;;;;;5.77;100.00;97188.63;6108625;19;20010;-71
2024/03/23 05:03:07;;;;;;;40.90;21.70;;;;;;;5.76;100.00;97182.34;6104501;19;20036;-71
2024/03/23 05:05:07;;;;;;;39.08;20.75;;;;;;;5.79;100.00;97186.28;6107863;19;20010;-71
2024/03/23 05:07:08;;;;;;;43.60;21.98;;;;;;;5.80;100.00;97187.91;6106851;19;20006;-71
2024/03/23 05:09:11;;;;;;;39.47;21.00;;;;;;;5.83;100.00;97181.66;6108006;19;20566;-70
2024/03/23 05:11:11;;;;;;;38.95;19.45;;;;;;;5.85;100.00;97174.59;6106933;19;20076;-70
2024/03/23 05:13:12;;;;;;;38.45;20.20;;;;;;;5.90;100.00;97160.56;6107830;19;20003;-70
2024/03/23 05:15:12;;;;;;;37.28;20.42;;;;;;;5.91;100.00;97147.63;6107356;19;20482;-70
2024/03/23 05:17:13;;;;;;;39.45;20.80;;;;;;;5.94;100.00;97141.38;6106050;19;20027;-71
2024/03/23 05:19:13;;;;;;;41.40;20.80;;;;;;;5.93;100.00;97144.50;6107695;19;20040;-71
2024/03/23 05:21:13;;;;;;;35.28;19.83;;;;;;;5.92;100.00;97146.47;6107428;19;20016;-71
2024/03/23 05:23:14;;;;;;;35.28;19.95;;;;;;;5.90;100.00;97124.06;6108228;19;20498;-71
2024/03/23 05:25:15;;;;;;;40.55;20.55;;;;;;;5.94;100.00;97119.41;6107320;19;20447;-71
2024/03/23 05:27:16;;;;;;;38.88;22.17;;;;;;;5.93;100.00;97111.56;6106410;19;20011;-71
2024/03/23 05:29:17;;;;;;;39.28;21.00;;;;;;;5.96;100.00;97114.34;6108017;19;20013;-71
2024/03/23 05:31:24;;;;;;;45.03;21.95;;;;;;;5.90;100.00;97107.59;6105721;19;20003;-71
2024/03/23 05:33:25;;;;;;;37.35;20.23;;;;;;;5.89;100.00;97133.47;6107307;19;20462;-71
2024/03/23 05:35:25;;;;;;;36.53;18.88;;;;;;;5.89;100.00;97141.72;6107517;19;20023;-71
2024/03/23 05:37:25;;;;;;;39.85;19.27;;;;;;;5.85;100.00;97121.66;6106440;19;20010;-71
2024/03/23 05:39:26;;;;;;;34.28;19.02;;;;;;;5.85;100.00;97127.16;6107221;19;20032;-71
2024/03/23 05:41:26;;;;;;;35.88;19.23;;;;;;;5.80;100.00;97114.59;6108315;19;20506;-71
2024/03/23 05:43:28;;;;;;;39.95;19.65;;;;;;;5.83;100.00;97100.09;6106047;19;20014;-71
2024/03/23 05:45:28;;;;;;;37.03;19.95;;;;;;;5.87;100.00;97097.34;6103051;19;20002;-71
2024/03/23 05:47:29;;;;;;;38.90;19.48;;;;;;;5.87;100.00;97100.88;6103643;19;20019;-70
2024/03/23 05:49:29;;;;;;;34.88;19.13;;;;;;;5.86;100.00;97104.03;6106392;19;20011;-70
2024/03/23 05:51:29;;;;;;;35.65;18.60;;;;;;;5.86;100.00;97091.09;6107212;19;20635;-70
2024/03/23 05:53:30;;;;;;;38.45;19.67;;;;;;;5.89;100.00;97114.25;6104383;19;20007;-70
2024/03/23 05:55:30;;;;;;;37.70;20.05;;;;;;;5.94;100.00;97137.84;6106710;19;20423;-70
2024/03/23 05:57:31;;;;;;;41.45;21.60;;;;;;;5.87;100.00;97130.28;6105703;19;20010;-70
2024/03/23 05:59:31;;;;;;;44.95;22.30;;;;;;;5.79;100.00;97148.69;6106836;19;20006;-70
2024/03/23 06:01:32;;;;;;;43.38;20.27;;;;;;;5.81;100.00;97160.06;6104653;19;20062;-70
2024/03/23 06:03:32;;;;;;;39.95;20.08;;;;;;;5.86;100.00;97147.94;6098330;19;20006;-70
2024/03/23 06:05:33;;;;;;;39.20;18.95;;;;;;;5.86;100.00;97180.88;6103999;19;20321;-70
2024/03/23 06:07:33;;;;;;;31.65;16.05;;;;;;;5.94;100.00;97171.56;6099228;19;20009;-70
2024/03/23 06:09:33;;;;;;;19.67;9.25;;;;;;;6.03;100.00;97143.78;6094987;19;20016;-70
2024/03/23 06:11:34;;;;;;;12.25;6.30;;;;;;;5.88;100.00;97162.09;6101187;19;20499;-71
2024/03/23 06:13:34;;;;;;;14.77;5.80;;;;;;;5.86;100.00;97176.19;6097796;19;20003;-71
2024/03/23 06:15:37;;;;;;;11.80;5.55;;;;;;;5.73;100.00;97176.84;6109875;19;20007;-71
2024/03/23 06:17:38;;;;;;;7.38;3.88;;;;;;;5.72;100.00;97178.03;6108943;19;20077;-70
2024/03/23 06:19:38;;;;;;;8.82;4.28;;;;;;;5.60;100.00;97152.41;6111773;19;20358;-70
2024/03/23 06:21:43;;;;;;;8.05;4.43;;;;;;;5.54;100.00;97162.16;6107936;19;20010;-70
2024/03/23 06:23:51;;;;;;;9.70;4.05;;;;;;;5.53;100.00;97181.72;6107184;19;20014;-71
2024/03/23 06:25:51;;;;;;;7.80;4.60;;;;;;;5.38;100.00;97183.56;6107404;19;20518;-71
2024/03/23 06:27:51;;;;;;;8.90;4.88;;;;;;;5.41;100.00;97185.53;6103802;19;20022;-72
2024/03/23 06:29:51;;;;;;;6.78;4.03;;;;;;;5.40;100.00;97185.91;6106438;19;20034;-71
2024/03/23 06:31:54;;;;;;;10.00;5.07;;;;;;;5.43;100.00;97193.38;6107593;19;20029;-70
2024/03/23 06:33:55;;;;;;;6.90;3.35;;;;;;;5.38;100.00;97178.06;6105510;19;21932;-69
2024/03/23 06:35:55;;;;;;;5.07;3.65;;;;;;;5.40;100.00;97173.00;6102094;19;20011;-69
2024/03/23 06:37:56;;;;;;;9.57;4.40;;;;;;;5.39;100.00;97168.66;6102667;19;20027;-71
2024/03/23 06:39:56;;;;;;;7.20;3.60;;;;;;;5.36;100.00;97175.69;6102385;19;20104;-71
2024/03/23 06:41:56;;;;;;;7.85;3.70;;;;;;;5.37;100.00;97181.94;6106948;19;20003;-71
2024/03/23 06:43:57;;;;;;;6.50;3.40;;;;;;;5.41;100.00;97171.03;6107597;19;20002;-72
2024/03/23 06:45:57;;;;;;;6.35;3.60;;;;;;;5.41;100.00;97180.06;6108134;19;20109;-72
2024/03/23 06:47:57;;;;;;;7.07;2.95;;;;;;;5.49;100.00;97178.97;6110903;19;20002;-71
2024/03/23 06:50:03;;;;;;;7.03;3.03;;;;;;;5.42;100.00;97167.91;6108525;19;20027;-72
2024/03/23 06:52:03;;;;;;;5.57;3.60;;;;;;;5.35;100.00;97196.03;6104792;19;20086;-72
2024/03/23 06:54:05;;;;;;;6.85;3.40;;;;;;;5.38;100.00;97223.88;6101962;19;19999;-71
2024/03/23 06:56:05;;;;;;;4.75;2.72;;;;;;;5.22;100.00;97248.78;6106650;19;20010;-72
2024/03/23 06:58:06;;;;;;;4.10;2.20;;;;;;;5.17;100.00;97271.03;6107017;19;20007;-71
2024/03/23 07:00:09;;;;;;;4.15;2.20;;;;;;;5.14;100.00;97277.28;6109073;19;20018;-72
2024/03/23 07:02:10;;;;;;;4.25;2.10;;;;;;;5.07;100.00;97286.97;6110703;19;20533;-71
2024/03/23 07:04:10;;;;;;;2.42;1.80;;;;;;;4.99;100.00;97315.44;6110837;19;19998;-71
2024/03/23 07:06:10;;;;;;;2.83;1.60;;;;;;;4.84;100.00;97313.66;6110823;19;20271;-71
2024/03/23 07:08:11;;;;;;;2.90;1.55;;;;;;;4.69;100.00;97320.06;6110206;19;20002;-71
2024/03/23 07:10:11;;;;;;;2.63;1.45;;;;;;;4.28;100.00;97322.50;6104414;19;20042;-71
2024/03/23 07:12:12;;;;;;;2.92;1.45;;;;;;;4.17;100.00;97322.34;6103616;19;20019;-72
2024/03/23 07:14:12;;;;;;;2.58;1.58;;;;;;;4.04;100.00;97337.34;6104301;19;20026;-72
2024/03/23 07:16:13;;;;;;;2.40;1.55;;;;;;;4.10;100.00;97343.31;6104026;19;20031;-72
2024/03/23 07:18:13;;;;;;;4.28;2.38;;;;;;;3.99;100.00;97342.34;6103798;19;20013;-72
2024/03/23 07:20:14;;;;;;;7.32;4.20;;;;;;;3.93;100.00;97348.09;6104926;19;20003;-72
2024/03/23 07:22:14;;;;;;;3.72;2.80;;;;;;;3.78;100.00;97356.38;6103611;19;20354;-72
2024/03/23 07:24:15;;;;;;;3.28;1.60;;;;;;;3.72;100.00;97366.00;6101428;19;20003;-71
2024/03/23 07:26:15;;;;;;;2.55;1.88;;;;;;;3.72;100.00;97377.75;6099873;19;20484;-71
2024/03/23 07:28:15;;;;;;;1.85;1.05;;;;;;;3.49;100.00;97385.88;6104236;19;20007;-72
2024/03/23 07:30:16;;;;;;;1.05;0.80;;;;;;;3.32;100.00;97380.81;6102212;19;20006;-72
2024/03/23 07:32:16;;;;;;;1.65;0.90;;;;;;;3.23;100.00;97394.69;6103409;19;20475;-72
2024/03/23 07:34:16;;;;;;;2.88;1.60;;;;;;;3.21;100.00;97407.09;6103494;19;20231;-72
2024/03/23 07:36:17;;;;;;;2.60;1.90;;;;;;;3.16;100.00;97424.59;6102194;19;20371;-72
2024/03/23 07:38:17;;;;;;;1.70;1.25;;;;;;;3.06;100.00;97414.19;6103489;19;20066;-72
2024/03/23 07:40:17;;;;;;;1.30;1.20;;;;;;;3.03;100.00;97420.34;6103277;19;20255;-72
2024/03/23 07:42:17;;;;;;;1.52;1.20;;;;;;;3.04;100.00;97427.41;6101427;19;20007;-72
2024/03/23 07:44:18;;;;;;;1.10;1.00;;;;;;;2.98;100.00;97429.63;6103945;19;20003;-72
2024/03/23 07:46:19;;;;;;;1.23;1.00;;;;;;;2.93;100.00;97440.03;6101209;19;20014;-71
2024/03/23 07:48:22;;;;;;;0.80;0.60;;;;;;;3.01;100.00;97439.06;6101763;19;20014;-71
2024/03/23 07:50:23;;;;;;;0.98;0.88;;;;;;;2.96;100.00;97436.56;6102921;19;20011;-72
2024/03/23 07:52:23;;;;;;;3.58;0.80;;;;;;;2.90;100.00;97429.81;6103514;19;20412;-72
2024/03/23 07:54:23;;;;;;;0.60;0.60;;;;;;;2.93;100.00;97435.34;6098816;19;20017;-71
2024/03/23 07:56:24;;;;;;;0.60;0.60;;;;;;;2.84;100.00;97425.75;6101497;19;20044;-71
2024/03/23 07:58:24;;;;;;;0.50;0.50;;;;;;;2.86;100.00;97434.38;6102213;19;20010;-71
2024/03/23 08:00:24;;;;;;;0.52;0.52;;;;;;;2.85;100.00;97430.06;6099039;19;20772;-71
2024/03/23 08:02:25;;;;;;;0.63;0.63;;;;;;;2.73;100.00;97439.13;6102451;19;20506;-71
2024/03/23 08:04:27;;;;;;;1.38;0.52;;;;;;;2.71;100.00;97436.75;6100824;19;20074;-71
2024/03/23 08:06:27;;;;;;;1.27;0.73;;;;;;;2.77;100.00;97450.94;6101091;19;20014;-71
2024/03/23 08:08:27;;;;;;;1.38;1.00;;;;;;;2.83;100.00;97459.69;6102722;19;20017;-71
2024/03/23 08:10:28;;;;;;;1.70;1.25;;;;;;;2.85;100.00;97458.19;6107611;19;20435;-71
2024/03/23 08:12:28;;;;;;;1.23;1.00;;;;;;;2.84;100.00;97474.94;6109089;19;20007;-71
2024/03/23 08:14:28;;;;;;;1.35;0.90;;;;;;;2.78;100.00;97466.19;6110348;19;20344;-71
2024/03/23 08:16:28;;;;;;;0.98;0.80;;;;;;;2.85;100.00;97476.50;6107945;19;20017;-71
2024/03/23 08:18:29;;;;;;;2.08;1.52;;;;;;;2.84;100.00;97492.13;6106505;19;20083;-71
2024/03/23 08:20:29;;;;;;;3.30;1.73;;;;;;;2.81;100.00;97498.25;6106861;19;20963;-71
2024/03/23 08:22:30;;;;;;;2.08;1.60;;;;;;;2.87;100.00;97499.59;6108941;19;20014;-71
2024/03/23 08:24:30;;;;;;;3.60;2.10;;;;;;;2.87;100.00;97498.81;6109672;19;20343;-71
2024/03/23 08:26:30;;;;;;;1.73;1.40;;;;;;;2.90;100.00;97509.84;6109246;19;20013;-71
2024/03/23 08:28:31;;;;;;;1.73;1.48;;;;;;;2.99;100.00;97520.59;6109627;19;20014;-71
2024/03/23 08:30:32;;;;;;;5.43;3.25;;;;;;;2.99;100.00;97523.34;6108587;19;20011;-71
2024/03/23 08:32:32;;;;;;;2.80;1.90;;;;;;;3.07;100.00;97528.63;6105525;19;20009;-71
2024/03/23 08:34:32;;;;;;;1.35;1.08;;;;;;;3.12;100.00;97578.69;6110698;19;20106;-71
2024/03/23 08:36:32;;;;;;;1.17;0.90;;;;;;;3.07;100.00;97557.91;6106707;19;20003;-71
2024/03/23 08:38:33;;;;;;;0.80;0.80;;;;;;;3.01;100.00;97564.75;6105816;19;20007;-71
2024/03/23 08:40:33;;;;;;;1.23;1.00;;;;;;;3.00;100.00;97555.78;6103811;19;20013;-71
2024/03/23 08:42:34;;;;;;;1.42;1.30;;;;;;;2.95;100.00;97561.47;6105428;19;20519;-71
2024/03/23 08:44:35;;;;;;;1.65;1.40;;;;;;;2.96;100.00;97554.88;6102566;19;20468;-71
2024/03/23 08:46:35;;;;;;;1.10;1.00;;;;;;;2.95;100.00;97561.47;6099871;19;20603;-71
2024/03/23 08:48:48;;;;;;;1.00;0.90;;;;;;;3.06;100.00;97569.94;6104642;19;20006;-71
2024/03/23 08:51:02;;;;;;;2.13;0.70;;;;;;;3.04;100.00;97569.50;6102297;19;20039;-71
2024/03/23 08:53:03;;;;;;;1.42;0.80;;;;;;;3.08;100.00;97576.69;6106106;19;20010;-71
2024/03/23 08:55:04;;;;;;;0.77;0.70;;;;;;;3.12;100.00;97573.22;6102329;19;20030;-71
2024/03/23 08:57:04;;;;;;;1.02;0.88;;;;;;;3.16;100.00;97579.59;6102586;19;20377;-71
2024/03/23 08:59:04;;;;;;;1.52;0.90;;;;;;;3.20;100.00;97589.47;6103588;19;20002;-71
2024/03/23 09:01:06;;;;;;;0.85;0.85;;;;;;;3.27;100.00;97588.84;6103654;19;20475;-71
2024/03/23 09:03:07;;;;;;;1.15;0.90;;;;;;;3.30;100.00;97599.06;6099792;19;20012;-71
2024/03/23 09:05:07;;;;;;;0.88;0.88;;;;;;;3.36;100.00;97603.94;6100089;19;20070;-71
2024/03/23 09:07:08;;;;;;;1.52;0.90;;;;;;;3.44;100.00;97598.66;6101188;19;20475;-71
2024/03/23 09:09:08;;;;;;;2.10;0.90;;;;;;;3.38;100.00;97604.38;6100637;19;20018;-71
2024/03/23 09:11:13;;;;;;;1.40;1.00;;;;;;;3.48;100.00;97596.81;6102712;19;20077;-71
2024/03/23 09:13:13;;;;;;;1.85;0.98;;;;;;;3.45;100.00;97602.97;6102386;19;20086;-71
2024/03/23 09:15:14;;;;;;;0.98;0.80;;;;;;;3.54;100.00;97615.31;6100530;19;20002;-71
2024/03/23 09:17:14;;;;;;;0.70;0.70;;;;;;;3.60;100.00;97621.34;6107059;19;20006;-71
2024/03/23 09:19:14;;;;;;;1.33;0.95;;;;;;;3.63;100.00;97626.09;6104643;19;20466;-71